Time;durP1;ratioP1;P1;durP2;ratioP2;P2;SDS_P1;SDS_P2;PMS_P1;PMS_P2;Temp;Humidity;BMP_temperature;BMP_pressure;BME280_temperature;BME280_humidity;BME280_pressure;Samples;Min_cycle;Max_cycle;Signal;HPM_P1;HPM_P2
2022/08/26 00:01:20;;;;;;;1.57;0.50;;;19.20;99.90;;;;;;5014180;28;20187;-70
2022/08/26 00:03:48;;;;;;;2.77;0.57;;;18.70;99.90;;;;;;5013891;28;20210;-71
2022/08/26 00:06:16;;;;;;;3.10;0.70;;;19.00;99.90;;;;;;5013741;28;20195;-71
2022/08/26 00:08:45;;;;;;;1.80;0.67;;;19.10;99.90;;;;;;4996146;28;20189;-70
2022/08/26 00:11:13;;;;;;;2.33;0.70;;;19.40;99.90;;;;;;5013823;28;20246;-71
2022/08/26 00:13:41;;;;;;;2.13;0.60;;;20.00;99.90;;;;;;5013588;28;20181;-72
2022/08/26 00:16:10;;;;;;;1.30;0.70;;;20.40;99.90;;;;;;5016105;28;21620;-72
2022/08/26 00:18:39;;;;;;;0.77;0.60;;;20.40;99.90;;;;;;5014337;28;20549;-70
2022/08/26 00:21:08;;;;;;;1.73;0.50;;;20.90;99.90;;;;;;5013815;28;20174;-69
2022/08/26 00:23:36;;;;;;;3.50;0.70;;;20.70;99.90;;;;;;5013415;28;20289;-70
2022/08/26 00:26:05;;;;;;;1.77;0.50;;;20.90;99.90;;;;;;5013214;28;20181;-70
2022/08/26 00:28:34;;;;;;;1.93;0.50;;;20.30;99.90;;;;;;5013564;28;20654;-70
2022/08/26 00:31:02;;;;;;;4.63;0.73;;;20.80;99.90;;;;;;5013736;28;20683;-71
2022/08/26 00:33:31;;;;;;;4.07;0.80;;;22.00;99.90;;;;;;4995945;28;20277;-70
2022/08/26 00:35:58;;;;;;;1.43;0.60;;;22.70;99.90;;;;;;5013466;28;20193;-70
2022/08/26 00:38:26;;;;;;;1.60;0.60;;;22.90;99.90;;;;;;5012622;28;20193;-69
2022/08/26 00:40:56;;;;;;;2.47;0.70;;;22.40;99.90;;;;;;5012933;28;20279;-70
2022/08/26 00:43:25;;;;;;;2.63;0.77;;;21.30;99.90;;;;;;5013321;28;20183;-70
2022/08/26 00:46:04;;;;;;;2.93;0.60;;;20.60;99.90;;;;;;5013604;28;20186;-70
2022/08/26 00:48:35;;;;;;;2.63;0.70;;;19.90;99.90;;;;;;5013130;28;20183;-69
2022/08/26 00:51:24;;;;;;;2.20;0.87;;;19.50;99.90;;;;;;4995796;28;20225;-70
2022/08/26 00:53:57;;;;;;;1.77;0.70;;;19.40;99.90;;;;;;5013327;28;20194;-70
2022/08/26 00:56:51;;;;;;;2.47;0.70;;;19.20;99.90;;;;;;5013391;28;20572;-68
2022/08/26 00:59:20;;;;;;;2.77;0.60;;;19.10;99.90;;;;;;4992176;28;20509;-70
2022/08/26 01:01:48;;;;;;;1.63;0.60;;;19.10;99.90;;;;;;4993422;28;20179;-69
2022/08/26 01:04:22;;;;;;;3.20;0.83;;;19.00;99.90;;;;;;5012957;28;20252;-70
2022/08/26 01:06:52;;;;;;;0.70;0.60;;;18.80;99.90;;;;;;5012476;28;20209;-69
2022/08/26 01:09:22;;;;;;;2.83;0.60;;;18.90;99.90;;;;;;5012525;28;20540;-71
2022/08/26 01:11:53;;;;;;;3.23;0.80;;;18.50;99.90;;;;;;5012719;28;20240;-70
2022/08/26 01:14:23;;;;;;;1.87;0.70;;;18.90;99.90;;;;;;5013012;28;20195;-71
2022/08/26 01:16:51;;;;;;;3.30;1.07;;;18.80;99.90;;;;;;5012431;28;20187;-71
2022/08/26 01:20:03;;;;;;;2.10;0.83;;;18.60;99.90;;;;;;5012730;28;20604;-69
2022/08/26 01:22:53;;;;;;;3.23;0.97;;;18.70;99.90;;;;;;5008199;28;20204;-71
2022/08/26 01:25:22;;;;;;;1.93;0.60;;;18.90;99.90;;;;;;5002309;28;20216;-70
2022/08/26 01:27:51;;;;;;;2.00;0.80;;;19.10;99.90;;;;;;5012299;28;20222;-70
2022/08/26 01:30:20;;;;;;;10.40;2.20;;;19.30;99.90;;;;;;5012733;28;20182;-71
2022/08/26 01:32:49;;;;;;;5.03;0.80;;;19.40;99.90;;;;;;5012520;28;20271;-71
2022/08/26 01:35:19;;;;;;;1.03;0.53;;;19.60;99.90;;;;;;5011836;28;20206;-70
2022/08/26 01:37:50;;;;;;;5.17;0.83;;;19.40;99.90;;;;;;5012205;28;20183;-70
2022/08/26 01:40:24;;;;;;;0.83;0.63;;;19.30;99.90;;;;;;5012285;28;20174;-70
2022/08/26 01:42:53;;;;;;;2.97;0.60;;;19.00;99.90;;;;;;5012616;28;20181;-70
2022/08/26 01:45:25;;;;;;;2.77;0.67;;;19.00;99.90;;;;;;5012213;28;20174;-70
2022/08/26 01:47:56;;;;;;;2.23;0.80;;;18.90;99.90;;;;;;5012714;28;20190;-71
2022/08/26 01:50:34;;;;;;;4.30;0.60;;;18.90;99.90;;;;;;5012601;28;20182;-71
2022/08/26 01:53:06;;;;;;;1.30;0.53;;;19.10;99.90;;;;;;4994186;28;20194;-70
2022/08/26 01:55:36;;;;;;;1.30;0.63;;;20.00;99.90;;;;;;4994330;28;20199;-69
2022/08/26 01:58:09;;;;;;;0.50;0.50;;;21.30;99.90;;;;;;5008295;28;20278;-70
2022/08/26 02:00:37;;;;;;;1.90;0.60;;;21.30;99.90;;;;;;5013024;28;20323;-70
2022/08/26 02:03:16;;;;;;;3.70;0.80;;;20.50;99.90;;;;;;5012453;28;20660;-71
2022/08/26 02:06:05;;;;;;;3.60;0.60;;;19.90;99.90;;;;;;5013330;28;20187;-70
2022/08/26 02:08:46;;;;;;;0.67;0.67;;;19.10;99.90;;;;;;5013189;28;20175;-70
2022/08/26 02:11:14;;;;;;;2.43;0.70;;;18.80;99.90;;;;;;5012897;28;20702;-70
2022/08/26 02:13:45;;;;;;;2.37;0.77;;;18.80;99.90;;;;;;5013095;28;20196;-71
2022/08/26 02:16:17;;;;;;;2.83;0.60;;;19.00;99.90;;;;;;5013678;28;20185;-70
2022/08/26 02:18:46;;;;;;;3.20;0.70;;;19.20;99.90;;;;;;5013270;28;20212;-71
2022/08/26 02:21:15;;;;;;;2.47;0.73;;;20.20;99.90;;;;;;5013294;28;20172;-69
2022/08/26 02:23:43;;;;;;;4.50;0.80;;;20.40;99.90;;;;;;5012953;28;20529;-69
2022/08/26 02:26:18;;;;;;;4.10;0.70;;;20.50;99.90;;;;;;5013268;28;20237;-69
2022/08/26 02:28:56;;;;;;;3.07;0.80;;;20.20;99.90;;;;;;5012222;28;20185;-69
2022/08/26 02:31:24;;;;;;;1.27;0.77;;;19.90;99.90;;;;;;5012947;28;20227;-70
2022/08/26 02:33:52;;;;;;;2.43;0.63;;;19.80;99.90;;;;;;5012741;28;20252;-70
2022/08/26 02:36:22;;;;;;;3.27;0.70;;;20.10;99.90;;;;;;5009806;28;20179;-70
2022/08/26 02:38:50;;;;;;;2.10;0.60;;;20.00;99.90;;;;;;5012277;28;20184;-70
2022/08/26 02:41:18;;;;;;;2.20;0.97;;;20.20;99.90;;;;;;5012428;28;20667;-70
2022/08/26 02:43:45;;;;;;;4.33;0.70;;;20.30;99.90;;;;;;5012492;28;20182;-70
2022/08/26 02:46:13;;;;;;;3.30;0.87;;;20.30;99.90;;;;;;5013187;28;20189;-70
2022/08/26 02:48:41;;;;;;;3.13;0.90;;;20.30;99.90;;;;;;5017102;28;20178;-69
2022/08/26 02:51:10;;;;;;;3.40;0.93;;;20.40;99.90;;;;;;5016055;28;20216;-73
2022/08/26 02:53:37;;;;;;;1.53;0.70;;;20.50;99.90;;;;;;5017426;28;20266;-70
2022/08/26 02:56:08;;;;;;;3.43;0.90;;;20.40;99.90;;;;;;5017639;28;20209;-70
2022/08/26 02:58:36;;;;;;;2.73;0.80;;;20.70;99.90;;;;;;5017383;28;20645;-76
2022/08/26 03:01:04;;;;;;;5.43;0.60;;;20.70;99.90;;;;;;5017065;28;20520;-72
2022/08/26 03:03:32;;;;;;;3.63;1.10;;;21.20;99.90;;;;;;5017146;28;20172;-71
2022/08/26 03:06:00;;;;;;;6.00;1.27;;;21.30;99.90;;;;;;5017129;28;20181;-75
2022/08/26 03:08:28;;;;;;;3.97;0.73;;;21.90;99.90;;;;;;5016823;28;20520;-74
2022/08/26 03:10:56;;;;;;;1.23;0.50;;;21.90;99.90;;;;;;5016530;28;20284;-74
2022/08/26 03:13:23;;;;;;;2.60;0.60;;;21.10;99.90;;;;;;5016943;28;20273;-74
2022/08/26 03:15:51;;;;;;;1.43;0.50;;;20.30;99.90;;;;;;5016799;28;20181;-73
2022/08/26 03:18:19;;;;;;;3.30;0.60;;;19.90;99.90;;;;;;5016807;28;20247;-72
2022/08/26 03:20:47;;;;;;;1.80;0.70;;;19.90;99.90;;;;;;5017315;28;20211;-71
2022/08/26 03:23:17;;;;;;;2.60;0.50;;;19.90;99.90;;;;;;5016568;28;20197;-70
2022/08/26 03:25:49;;;;;;;3.90;1.10;;;19.90;99.90;;;;;;5016810;28;20187;-75
2022/08/26 03:28:18;;;;;;;2.20;0.70;;;20.10;99.90;;;;;;5016643;28;20181;-71
2022/08/26 03:30:46;;;;;;;4.23;0.70;;;20.10;99.90;;;;;;5016571;28;20307;-75
2022/08/26 03:33:15;;;;;;;4.07;1.00;;;20.10;99.90;;;;;;5016486;28;20182;-71
2022/08/26 03:35:46;;;;;;;4.17;0.90;;;19.90;99.90;;;;;;5016355;28;20709;-73
2022/08/26 03:38:15;;;;;;;2.27;0.77;;;19.80;99.90;;;;;;5016525;28;20178;-73
2022/08/26 03:40:44;;;;;;;2.47;1.10;;;19.90;99.90;;;;;;5016482;28;20205;-72
2022/08/26 03:43:12;;;;;;;2.47;0.87;;;20.20;99.90;;;;;;5016396;28;20206;-70
2022/08/26 03:45:40;;;;;;;3.07;1.10;;;20.70;99.90;;;;;;5016721;28;20214;-71
2022/08/26 03:48:08;;;;;;;4.07;0.70;;;21.60;99.90;;;;;;5016134;28;20174;-72
2022/08/26 03:50:36;;;;;;;8.60;1.30;;;21.90;99.90;;;;;;5016098;28;20178;-69
2022/08/26 03:53:05;;;;;;;3.73;0.90;;;21.90;99.90;;;;;;5016058;28;20268;-72
2022/08/26 03:55:33;;;;;;;2.80;1.00;;;21.90;99.90;;;;;;4998780;28;20246;-70
2022/08/26 03:58:01;;;;;;;3.60;0.80;;;22.00;99.90;;;;;;5015547;28;20170;-70
2022/08/26 04:00:29;;;;;;;2.40;0.70;;;21.90;99.90;;;;;;5016048;28;20537;-70
2022/08/26 04:02:57;;;;;;;5.87;1.10;;;21.90;99.90;;;;;;5016008;28;20709;-69
2022/08/26 04:05:25;;;;;;;4.17;0.90;;;21.90;99.90;;;;;;4998356;28;20236;-71
2022/08/26 04:07:53;;;;;;;3.20;0.80;;;21.90;99.90;;;;;;5017304;28;20235;-71
2022/08/26 04:10:23;;;;;;;3.13;0.70;;;21.50;99.90;;;;;;5038023;28;20174;-73
2022/08/26 04:12:51;;;;;;;2.43;0.60;;;20.80;99.90;;;;;;5038393;28;20217;-71
2022/08/26 04:15:20;;;;;;;3.00;0.90;;;20.50;99.90;;;;;;5021495;28;20186;-71
2022/08/26 04:17:48;;;;;;;3.37;0.87;;;20.80;99.90;;;;;;4998175;28;20197;-70
2022/08/26 04:20:19;;;;;;;3.50;0.87;;;21.30;99.90;;;;;;5015572;28;20553;-70
2022/08/26 04:22:47;;;;;;;1.60;0.57;;;21.50;99.90;;;;;;5015714;28;20188;-71
2022/08/26 04:25:15;;;;;;;0.83;0.50;;;21.50;99.90;;;;;;5015564;28;20178;-71
2022/08/26 04:27:43;;;;;;;2.60;0.80;;;21.90;99.90;;;;;;5015335;28;20182;-71
2022/08/26 04:30:11;;;;;;;2.83;0.70;;;21.90;99.90;;;;;;5015440;28;20177;-71
2022/08/26 04:32:39;;;;;;;4.30;0.67;;;21.40;99.90;;;;;;5015691;28;20218;-70
2022/08/26 04:35:07;;;;;;;3.50;0.70;;;21.00;99.90;;;;;;5015444;28;20521;-71
2022/08/26 04:37:35;;;;;;;1.77;0.67;;;20.60;99.90;;;;;;5015404;28;20192;-71
2022/08/26 04:40:04;;;;;;;4.90;1.00;;;20.20;99.90;;;;;;5015018;28;20627;-70
2022/08/26 04:42:33;;;;;;;3.47;0.80;;;20.00;99.90;;;;;;5014783;28;20204;-69
2022/08/26 04:45:02;;;;;;;5.50;1.03;;;19.90;99.90;;;;;;4997206;28;20550;-71
2022/08/26 04:47:29;;;;;;;2.87;0.90;;;19.90;99.90;;;;;;5014974;28;20216;-71
2022/08/26 04:49:57;;;;;;;3.47;1.10;;;20.20;99.90;;;;;;5014719;28;20185;-70
2022/08/26 04:52:25;;;;;;;3.50;0.90;;;20.10;99.90;;;;;;4997224;28;20298;-70
2022/08/26 04:54:53;;;;;;;4.60;1.00;;;19.90;99.90;;;;;;5014566;28;20205;-70
2022/08/26 04:57:22;;;;;;;2.90;0.90;;;19.60;99.90;;;;;;5014774;28;20177;-70
2022/08/26 04:59:49;;;;;;;4.20;1.10;;;19.50;99.90;;;;;;5014752;28;20188;-70
2022/08/26 05:02:18;;;;;;;7.50;1.07;;;19.30;99.90;;;;;;5014736;28;20184;-70
2022/08/26 05:04:45;;;;;;;1.60;0.77;;;19.30;99.90;;;;;;4997113;28;20196;-71
2022/08/26 05:07:13;;;;;;;3.17;0.90;;;19.20;99.90;;;;;;4996730;28;20289;-70
2022/08/26 05:09:41;;;;;;;6.23;1.07;;;19.00;99.90;;;;;;5013644;28;20200;-71
2022/08/26 05:12:09;;;;;;;5.33;1.13;;;18.90;99.90;;;;;;5014290;28;20233;-70
2022/08/26 05:14:36;;;;;;;4.40;1.50;;;18.90;99.90;;;;;;5014465;28;20230;-70
2022/08/26 05:17:04;;;;;;;3.67;1.10;;;18.80;99.90;;;;;;5014384;28;20204;-71
2022/08/26 05:19:32;;;;;;;5.07;1.17;;;18.70;99.90;;;;;;5010921;28;20193;-68
2022/08/26 05:22:00;;;;;;;4.10;1.40;;;18.70;99.90;;;;;;5013389;28;20553;-70
2022/08/26 05:24:28;;;;;;;6.07;1.17;;;18.60;99.90;;;;;;5010119;28;20186;-70
2022/08/26 05:26:56;;;;;;;5.23;1.20;;;18.50;99.90;;;;;;5013098;28;20537;-70
2022/08/26 05:29:24;;;;;;;3.57;1.30;;;18.50;99.90;;;;;;5011795;28;20272;-71
2022/08/26 05:31:52;;;;;;;4.53;1.20;;;18.60;99.90;;;;;;5011908;28;20772;-71
2022/08/26 05:34:22;;;;;;;2.27;0.80;;;18.70;99.90;;;;;;5011902;28;20178;-72
2022/08/26 05:36:50;;;;;;;5.00;1.13;;;18.80;99.90;;;;;;5012628;28;20186;-70
2022/08/26 05:39:17;;;;;;;7.70;0.90;;;18.80;99.90;;;;;;5012592;28;20519;-71
2022/08/26 05:41:45;;;;;;;1.13;0.60;;;18.90;99.90;;;;;;5004297;28;20194;-71
2022/08/26 05:44:17;;;;;;;6.17;0.80;;;19.00;99.90;;;;;;4992824;28;20632;-71
2022/08/26 05:46:45;;;;;;;2.87;0.80;;;19.10;99.90;;;;;;4992893;28;20277;-72
2022/08/26 05:49:17;;;;;;;3.00;0.77;;;19.00;99.90;;;;;;4995122;28;20241;-71
2022/08/26 05:51:45;;;;;;;5.10;1.57;;;19.10;99.90;;;;;;5011797;28;20328;-71
2022/08/26 05:54:14;;;;;;;5.70;0.87;;;19.20;99.90;;;;;;5012201;28;20186;-70
2022/08/26 05:56:42;;;;;;;6.30;1.40;;;19.10;99.90;;;;;;5012192;28;20240;-71
2022/08/26 05:59:14;;;;;;;3.53;0.97;;;19.00;99.90;;;;;;5012064;28;20316;-71
2022/08/26 06:01:42;;;;;;;2.83;1.00;;;18.70;99.90;;;;;;4959456;28;20197;-70
2022/08/26 06:04:11;;;;;;;4.97;1.20;;;18.50;99.90;;;;;;4992699;28;20190;-72
2022/08/26 06:06:40;;;;;;;4.17;0.90;;;18.40;99.90;;;;;;5004791;28;20272;-73
2022/08/26 06:09:09;;;;;;;3.00;1.10;;;18.20;99.90;;;;;;5012591;28;20186;-72
2022/08/26 06:11:37;;;;;;;6.37;1.10;;;18.10;99.90;;;;;;5011811;28;20299;-71
2022/08/26 06:14:06;;;;;;;6.63;0.77;;;18.00;99.90;;;;;;5012257;28;20659;-70
2022/08/26 06:16:37;;;;;;;5.23;1.00;;;17.80;99.90;;;;;;5012250;28;20229;-70
2022/08/26 06:19:06;;;;;;;4.17;1.00;;;17.80;99.90;;;;;;5011986;28;20264;-70
2022/08/26 06:21:38;;;;;;;3.77;1.03;;;17.80;99.90;;;;;;5011952;28;20281;-70
2022/08/26 06:26:56;;;;;;;5.43;1.53;;;17.90;99.90;;;;;;5012586;28;20188;-72
2022/08/26 06:29:25;;;;;;;3.97;1.07;;;17.90;99.90;;;;;;4995833;28;20197;-72
2022/08/26 06:31:54;;;;;;;4.17;1.20;;;17.80;99.90;;;;;;5012117;28;20228;-72
2022/08/26 06:34:23;;;;;;;7.00;1.47;;;17.80;99.90;;;;;;5012230;28;20178;-72
2022/08/26 06:36:52;;;;;;;5.07;0.87;;;17.70;99.90;;;;;;5011895;28;20190;-71
2022/08/26 06:39:20;;;;;;;3.40;1.13;;;17.70;99.90;;;;;;4994507;28;20683;-70
2022/08/26 06:41:48;;;;;;;8.37;1.07;;;17.70;99.90;;;;;;5011040;28;20271;-70
2022/08/26 06:44:16;;;;;;;4.30;1.10;;;16.90;99.90;;;;;;5011834;28;20178;-70
2022/08/26 06:46:44;;;;;;;7.23;1.10;;;17.60;99.90;;;;;;5011342;28;20659;-70
2022/08/26 06:49:12;;;;;;;9.60;1.37;;;17.50;99.90;;;;;;5011392;28;20964;-70
2022/08/26 06:51:45;;;;;;;7.07;1.20;;;17.50;99.90;;;;;;5011614;28;20217;-71
2022/08/26 06:54:12;;;;;;;4.10;1.23;;;17.60;99.90;;;;;;5012579;28;20224;-70
2022/08/26 06:56:43;;;;;;;6.97;1.20;;;17.40;99.90;;;;;;5011853;28;20258;-71
2022/08/26 06:59:11;;;;;;;3.73;1.23;;;17.30;99.90;;;;;;5012013;28;20178;-71
2022/08/26 07:01:45;;;;;;;3.47;1.00;;;17.20;99.90;;;;;;5011687;28;20555;-72
2022/08/26 07:04:16;;;;;;;5.67;1.60;;;17.10;99.90;;;;;;5012063;28;20170;-71
2022/08/26 07:06:49;;;;;;;7.40;1.20;;;17.10;99.90;;;;;;4994309;28;20178;-72
2022/08/26 07:09:17;;;;;;;11.10;1.37;;;16.90;99.90;;;;;;5011729;28;20577;-71
2022/08/26 07:11:47;;;;;;;3.63;1.27;;;16.90;99.90;;;;;;5011358;28;20622;-71
2022/08/26 07:14:15;;;;;;;6.50;1.40;;;16.80;99.90;;;;;;4994106;28;20320;-72
2022/08/26 07:16:47;;;;;;;9.13;1.53;;;16.80;99.90;;;;;;5012026;28;20741;-72
2022/08/26 07:19:20;;;;;;;4.07;1.13;;;16.70;99.90;;;;;;5013060;28;20177;-71
2022/08/26 07:21:48;;;;;;;8.87;2.50;;;16.70;99.90;;;;;;4993633;28;20190;-73
2022/08/26 07:24:16;;;;;;;4.20;1.23;;;16.60;99.90;;;;;;5011254;28;20186;-70
2022/08/26 07:26:44;;;;;;;3.40;1.30;;;16.50;99.90;;;;;;5011210;28;20664;-73
2022/08/26 07:29:15;;;;;;;6.33;1.10;;;16.40;99.90;;;;;;5011530;28;20214;-71
2022/08/26 07:31:44;;;;;;;5.37;1.20;;;16.40;99.90;;;;;;5011138;28;20230;-72
2022/08/26 07:34:12;;;;;;;7.83;1.03;;;16.50;99.90;;;;;;4997437;28;20198;-72
2022/08/26 07:36:43;;;;;;;6.47;1.40;;;16.40;99.90;;;;;;5014150;28;20190;-70
2022/08/26 07:39:11;;;;;;;3.97;1.17;;;16.30;99.90;;;;;;5014699;28;20182;-72
2022/08/26 07:41:39;;;;;;;7.27;1.43;;;16.30;99.90;;;;;;5014713;28;20178;-70
2022/08/26 07:44:07;;;;;;;2.90;1.07;;;16.20;99.90;;;;;;5013640;28;20658;-70
2022/08/26 07:46:35;;;;;;;9.37;1.63;;;16.20;99.90;;;;;;5014553;28;20189;-70
2022/08/26 07:49:03;;;;;;;10.67;1.40;;;16.10;99.90;;;;;;4996813;28;20669;-71
2022/08/26 07:51:31;;;;;;;7.13;1.37;;;16.10;99.90;;;;;;5014658;28;20324;-71
2022/08/26 07:54:00;;;;;;;9.60;1.37;;;16.00;99.90;;;;;;4996530;28;20190;-71
2022/08/26 07:56:28;;;;;;;7.13;1.50;;;16.00;99.90;;;;;;5014680;28;20282;-70
2022/08/26 07:58:57;;;;;;;8.27;1.40;;;15.90;99.90;;;;;;4997042;28;20182;-72
2022/08/26 08:01:28;;;;;;;9.60;1.37;;;15.90;99.90;;;;;;4997131;28;20204;-72
2022/08/26 08:03:57;;;;;;;9.60;1.43;;;15.80;99.90;;;;;;5014325;28;20610;-72
2022/08/26 08:06:28;;;;;;;5.70;1.40;;;15.80;99.90;;;;;;5013996;28;20193;-70
2022/08/26 08:08:56;;;;;;;11.37;1.97;;;15.70;99.90;;;;;;5014440;28;20245;-70
2022/08/26 08:11:27;;;;;;;5.00;1.80;;;15.70;99.90;;;;;;5013511;28;20261;-72
2022/08/26 08:13:55;;;;;;;24.27;11.87;;;15.70;99.90;;;;;;5014144;28;20586;-70
2022/08/26 08:16:27;;;;;;;9.33;2.13;;;15.70;99.90;;;;;;5013804;28;20198;-70
2022/08/26 08:18:55;;;;;;;6.63;2.27;;;15.70;99.90;;;;;;4996639;28;20612;-69
2022/08/26 08:21:28;;;;;;;7.43;1.80;;;15.60;99.90;;;;;;5014300;28;20174;-71
2022/08/26 08:23:56;;;;;;;8.10;1.83;;;15.50;99.90;;;;;;5013660;28;20277;-69
2022/08/26 08:26:34;;;;;;;7.70;1.90;;;15.50;99.90;;;;;;4996347;28;20186;-70
2022/08/26 08:29:01;;;;;;;7.97;1.90;;;15.50;99.90;;;;;;5013966;28;20188;-71
2022/08/26 08:31:32;;;;;;;10.30;1.60;;;15.40;99.90;;;;;;5013844;28;20209;-70
2022/08/26 08:34:00;;;;;;;6.60;2.20;;;15.40;99.90;;;;;;5013875;28;20181;-70
2022/08/26 08:36:28;;;;;;;8.53;2.40;;;15.40;99.90;;;;;;4996525;28;20193;-71
2022/08/26 08:38:56;;;;;;;8.30;2.23;;;15.30;99.90;;;;;;5013832;28;20635;-71
2022/08/26 08:41:55;;;;;;;7.97;2.33;;;15.30;99.90;;;;;;5013552;28;20219;-71
2022/08/26 08:44:25;;;;;;;5.10;1.80;;;15.30;99.90;;;;;;5013661;28;20719;-71
2022/08/26 08:47:05;;;;;;;10.10;1.80;;;15.30;99.90;;;;;;4995818;28;20517;-73
2022/08/26 08:49:33;;;;;;;17.23;2.67;;;15.20;99.90;;;;;;4997236;28;20188;-71
2022/08/26 08:52:28;;;;;;;12.67;1.87;;;15.10;99.90;;;;;;5013374;28;20308;-72
2022/08/26 08:54:57;;;;;;;10.77;2.07;;;15.10;99.90;;;;;;5013791;28;20213;-71
2022/08/26 08:57:45;;;;;;;9.23;1.80;;;15.00;99.90;;;;;;5012155;28;20189;-69
2022/08/26 09:00:17;;;;;;;11.70;1.90;;;15.00;99.90;;;;;;5013383;28;20174;-70
2022/08/26 09:02:58;;;;;;;11.07;2.27;;;15.00;99.90;;;;;;5013126;28;20272;-70
2022/08/26 09:05:38;;;;;;;10.67;4.03;;;15.00;99.90;;;;;;5013181;28;20265;-70
2022/08/26 09:08:15;;;;;;;9.33;1.60;;;15.00;99.90;;;;;;5013082;28;20276;-71
2022/08/26 09:10:56;;;;;;;12.90;1.57;;;14.90;99.90;;;;;;5012526;28;20181;-71
2022/08/26 09:13:24;;;;;;;8.63;1.50;;;14.90;99.90;;;;;;5013640;28;20306;-71
2022/08/26 09:16:19;;;;;;;11.40;2.33;;;14.90;99.90;;;;;;5012876;28;20651;-72
2022/08/26 09:19:05;;;;;;;6.10;1.53;;;15.00;99.90;;;;;;5013250;28;20206;-71
2022/08/26 09:21:33;;;;;;;9.33;2.00;;;15.00;99.90;;;;;;5012658;28;20185;-71
2022/08/26 09:24:01;;;;;;;9.13;1.60;;;14.90;99.90;;;;;;5012774;28;20181;-71
2022/08/26 09:26:51;;;;;;;6.57;1.50;;;15.00;99.90;;;;;;5012893;28;20270;-71
2022/08/26 09:29:26;;;;;;;6.93;1.60;;;14.90;99.90;;;;;;5012203;28;20186;-71
2022/08/26 09:32:15;;;;;;;9.97;1.53;;;14.90;99.90;;;;;;5012286;28;20212;-71
2022/08/26 09:35:02;;;;;;;6.17;1.67;;;14.80;99.90;;;;;;5012658;28;20177;-72
2022/08/26 09:37:48;;;;;;;8.50;1.50;;;14.80;99.90;;;;;;4995291;28;20178;-70
2022/08/26 09:40:27;;;;;;;5.13;1.30;;;14.70;99.90;;;;;;5012605;28;20670;-72
2022/08/26 09:43:09;;;;;;;8.20;1.60;;;14.60;99.90;;;;;;5012101;28;20183;-71
2022/08/26 09:45:44;;;;;;;11.43;2.20;;;14.60;99.90;;;;;;5012224;28;20651;-71
2022/08/26 09:48:23;;;;;;;6.93;2.40;;;14.50;99.90;;;;;;5012371;28;20193;-72
2022/08/26 09:50:58;;;;;;;10.13;3.43;;;14.50;99.90;;;;;;5012609;28;20268;-72
2022/08/26 09:53:30;;;;;;;8.47;1.97;;;14.40;99.90;;;;;;5012285;28;20196;-72
2022/08/26 09:56:26;;;;;;;5.70;1.67;;;14.30;99.90;;;;;;5011842;28;20220;-73
2022/08/26 09:58:55;;;;;;;8.60;1.77;;;14.40;99.90;;;;;;5010214;28;20208;-71
2022/08/26 10:01:36;;;;;;;6.77;1.57;;;14.30;99.90;;;;;;5012349;28;20274;-72
2022/08/26 10:04:29;;;;;;;5.50;1.43;;;14.40;99.90;;;;;;5012435;28;20178;-71
2022/08/26 10:07:05;;;;;;;7.23;1.80;;;14.30;99.90;;;;;;4994773;28;20283;-72
2022/08/26 10:09:44;;;;;;;13.50;1.60;;;14.30;99.90;;;;;;5012217;28;20672;-71
2022/08/26 10:12:21;;;;;;;7.20;1.67;;;14.30;99.90;;;;;;5012169;28;20256;-72
2022/08/26 10:14:51;;;;;;;6.40;1.50;;;14.40;99.90;;;;;;5012360;28;20224;-72
2022/08/26 10:17:44;;;;;;;5.97;1.93;;;14.30;99.90;;;;;;5011498;28;20546;-72
2022/08/26 10:20:17;;;;;;;7.93;2.07;;;14.40;99.90;;;;;;5012156;28;20191;-72
2022/08/26 10:23:16;;;;;;;5.30;1.70;;;14.40;99.90;;;;;;5012232;28;20218;-72
2022/08/26 10:26:13;;;;;;;5.97;2.10;;;14.40;99.90;;;;;;5011561;28;20192;-71
2022/08/26 10:29:00;;;;;;;7.23;1.80;;;14.50;99.90;;;;;;5010775;28;20228;-73
2022/08/26 10:31:54;;;;;;;6.53;1.80;;;14.50;99.90;;;;;;5010885;28;20686;-72
2022/08/26 10:34:22;;;;;;;6.67;1.97;;;14.50;99.90;;;;;;5002883;28;20271;-72
2022/08/26 10:37:01;;;;;;;6.30;2.20;;;14.50;99.90;;;;;;5012033;28;20204;-72
2022/08/26 10:39:47;;;;;;;6.90;2.00;;;14.50;99.90;;;;;;5012021;28;20184;-72
2022/08/26 10:42:23;;;;;;;6.67;1.93;;;14.40;99.90;;;;;;5011427;28;20549;-71
2022/08/26 10:44:55;;;;;;;4.47;2.20;;;14.40;99.90;;;;;;5011580;28;20183;-72
2022/08/26 10:47:47;;;;;;;6.20;2.67;;;14.30;99.90;;;;;;5011849;28;20588;-71
2022/08/26 10:50:14;;;;;;;8.60;2.00;;;14.30;99.90;;;;;;5011956;28;20216;-71
2022/08/26 10:52:51;;;;;;;5.73;1.93;;;14.20;99.90;;;;;;5011732;28;20214;-71
2022/08/26 10:55:42;;;;;;;4.60;1.87;;;14.20;99.90;;;;;;5011914;28;20185;-71
2022/08/26 10:58:34;;;;;;;5.80;1.90;;;14.20;99.90;;;;;;5011276;28;20637;-70
2022/08/26 11:04:14;;;;;;;5.50;2.20;;;14.20;99.90;;;;;;5011652;28;20676;-70
2022/08/26 11:06:44;;;;;;;6.23;2.30;;;14.20;99.90;;;;;;4994091;28;20185;-70
2022/08/26 11:09:33;;;;;;;8.57;2.33;;;14.20;99.90;;;;;;5015539;28;20654;-70
2022/08/26 11:12:01;;;;;;;6.03;2.23;;;14.30;99.90;;;;;;5001040;28;20240;-71
2022/08/26 11:14:34;;;;;;;8.07;2.63;;;14.30;99.90;;;;;;5015501;28;20224;-71
2022/08/26 11:17:08;;;;;;;6.77;2.47;;;14.30;99.90;;;;;;5015321;28;20196;-72
2022/08/26 11:19:39;;;;;;;4.27;1.90;;;14.40;99.90;;;;;;5015370;28;20647;-71
2022/08/26 11:22:23;;;;;;;7.50;2.50;;;14.40;99.90;;;;;;5015304;28;20176;-70
2022/08/26 11:24:57;;;;;;;10.07;2.20;;;14.40;99.90;;;;;;4997010;28;20189;-72
2022/08/26 11:27:25;;;;;;;4.97;2.00;;;14.30;99.90;;;;;;5015271;28;20186;-70
2022/08/26 11:30:05;;;;;;;5.23;2.10;;;14.30;99.90;;;;;;5014773;28;20185;-71
2022/08/26 11:32:51;;;;;;;7.20;1.80;;;14.30;99.90;;;;;;5014960;28;20221;-70
2022/08/26 11:35:19;;;;;;;6.33;2.27;;;14.30;99.90;;;;;;5013768;28;20229;-71
2022/08/26 11:37:53;;;;;;;6.07;1.50;;;14.30;99.90;;;;;;5014358;28;20190;-70
2022/08/26 11:40:37;;;;;;;5.80;1.77;;;14.30;99.90;;;;;;5014486;28;20192;-71
2022/08/26 11:43:24;;;;;;;4.07;1.70;;;14.30;99.90;;;;;;5014806;28;20181;-71
2022/08/26 11:46:04;;;;;;;6.53;2.10;;;14.30;99.90;;;;;;5014464;28;20239;-71
2022/08/26 11:48:35;;;;;;;6.37;1.93;;;14.30;99.90;;;;;;5014519;28;20178;-71
2022/08/26 11:51:22;;;;;;;4.57;1.90;;;14.30;99.90;;;;;;5014808;28;20185;-71
2022/08/26 11:53:50;;;;;;;6.43;1.90;;;14.40;99.90;;;;;;5006409;28;20184;-71
2022/08/26 11:56:25;;;;;;;6.10;1.93;;;14.30;99.90;;;;;;5014420;28;20187;-71
2022/08/26 11:58:56;;;;;;;8.70;2.30;;;14.30;99.90;;;;;;4996974;28;20274;-72
2022/08/26 12:01:35;;;;;;;5.27;2.00;;;14.20;99.90;;;;;;5014672;28;20182;-73
2022/08/26 12:04:06;;;;;;;3.03;1.70;;;14.20;99.90;;;;;;4994944;28;20233;-71
2022/08/26 12:06:37;;;;;;;7.23;2.00;;;14.20;99.90;;;;;;5013081;28;20284;-71
2022/08/26 12:09:33;;;;;;;3.37;2.00;;;14.10;99.90;;;;;;4996673;28;20232;-72
2022/08/26 12:12:30;;;;;;;5.27;1.87;;;14.10;99.90;;;;;;5013784;28;20244;-71
2022/08/26 12:15:16;;;;;;;6.87;2.60;;;14.10;99.90;;;;;;5013827;28;20249;-70
2022/08/26 12:17:46;;;;;;;6.93;2.20;;;14.00;99.90;;;;;;5013921;28;20642;-71
2022/08/26 12:20:47;;;;;;;7.83;2.47;;;14.10;99.90;;;;;;5014076;28;20311;-70
2022/08/26 12:23:48;;;;;;;8.93;2.63;;;14.00;99.90;;;;;;5014118;28;20280;-70
2022/08/26 12:26:28;;;;;;;8.33;2.63;;;14.00;99.90;;;;;;5003375;28;20212;-71
2022/08/26 12:29:05;;;;;;;3.47;2.00;;;13.90;99.90;;;;;;5014073;28;20193;-70
2022/08/26 12:31:36;;;;;;;6.67;2.10;;;13.80;99.90;;;;;;5013318;28;20592;-70
2022/08/26 12:34:08;;;;;;;7.57;2.17;;;13.90;99.90;;;;;;5014104;28;20185;-70
2022/08/26 12:36:41;;;;;;;4.23;1.97;;;13.90;99.90;;;;;;5013660;28;20267;-70
2022/08/26 12:39:10;;;;;;;5.77;2.20;;;13.90;99.90;;;;;;5013711;28;20189;-71
2022/08/26 12:41:54;;;;;;;5.27;1.93;;;13.90;99.90;;;;;;5013790;28;20174;-71
2022/08/26 12:44:38;;;;;;;7.57;2.20;;;13.90;99.90;;;;;;5013905;28;20193;-71
2022/08/26 12:47:44;;;;;;;5.33;1.73;;;13.90;99.90;;;;;;4994124;28;20204;-71
2022/08/26 12:50:18;;;;;;;4.60;2.03;;;13.90;99.90;;;;;;4997000;28;20260;-71
2022/08/26 12:53:11;;;;;;;6.30;2.00;;;13.90;99.90;;;;;;5013753;28;20228;-71
2022/08/26 12:55:49;;;;;;;4.33;2.00;;;13.80;99.90;;;;;;5013425;28;20262;-71
2022/08/26 12:58:32;;;;;;;4.93;2.37;;;13.80;99.90;;;;;;5013453;28;20247;-71
2022/08/26 13:01:05;;;;;;;4.40;1.97;;;13.70;99.90;;;;;;5013493;28;20183;-71
2022/08/26 13:03:45;;;;;;;6.17;2.20;;;13.60;99.90;;;;;;5013473;28;20216;-70
2022/08/26 13:06:21;;;;;;;6.50;1.93;;;13.60;99.90;;;;;;5013075;28;20192;-71
2022/08/26 13:08:55;;;;;;;4.10;1.63;;;13.50;99.90;;;;;;4995732;28;20212;-71
2022/08/26 13:11:38;;;;;;;6.60;2.30;;;13.50;99.90;;;;;;5012787;28;20703;-71
2022/08/26 13:14:16;;;;;;;3.53;1.67;;;13.60;99.90;;;;;;5012893;28;20215;-71
2022/08/26 13:16:45;;;;;;;2.70;1.70;;;13.50;99.90;;;;;;5012868;28;20545;-71
2022/08/26 13:19:21;;;;;;;3.63;1.33;;;13.50;99.90;;;;;;5013131;28;20201;-70
2022/08/26 13:21:55;;;;;;;5.27;1.67;;;13.60;99.90;;;;;;5013170;28;20548;-72